Time;durP1;ratioP1;P1;durP2;ratioP2;P2;SDS_P1;SDS_P2;PMS_P1;PMS_P2;Temp;Humidity;BMP_temperature;BMP_pressure;BME280_temperature;BME280_humidity;BME280_pressure;Samples;Min_cycle;Max_cycle;Signal;HPM_P1;HPM_P2
2022/03/27 00:00:31;;;;;;;32.27;16.23;;;;;;;;;;4447780;32;20271;-53
2022/03/27 00:02:57;;;;;;;38.10;14.80;;;;;;;;;;4447802;32;20244;-52
2022/03/27 00:05:22;;;;;;;32.33;17.43;;;;;;;;;;4450355;32;20369;-53
2022/03/27 00:07:48;;;;;;;36.47;18.63;;;;;;;;;;4460913;32;20288;-54
2022/03/27 00:10:13;;;;;;;39.93;19.23;;;;;;;;;;4447950;32;20279;-54
2022/03/27 00:12:39;;;;;;;34.27;19.23;;;;;;;;;;4447933;32;20315;-53
2022/03/27 00:15:05;;;;;;;40.17;21.47;;;;;;;;;;4447182;32;20405;-53
2022/03/27 00:17:32;;;;;;;44.53;20.40;;;;;;;;;;4447846;32;20276;-54
2022/03/27 00:20:00;;;;;;;46.90;21.30;;;;;;;;;;4447962;32;20283;-53
2022/03/27 00:22:26;;;;;;;38.10;20.53;;;;;;;;;;4459334;32;20224;-52
2022/03/27 00:24:51;;;;;;;51.17;21.30;;;;;;;;;;4466480;32;20458;-54
2022/03/27 00:27:17;;;;;;;46.27;24.43;;;;;;;;;;4458465;32;20216;-53
2022/03/27 00:29:42;;;;;;;50.53;24.43;;;;;;;;;;4449432;32;20390;-52
2022/03/27 00:32:08;;;;;;;47.70;23.57;;;;;;;;;;4449555;32;20296;-53
2022/03/27 00:34:33;;;;;;;39.43;19.87;;;;;;;;;;4450544;32;20326;-52
2022/03/27 00:36:58;;;;;;;37.27;19.17;;;;;;;;;;4450701;32;20298;-53
2022/03/27 00:39:24;;;;;;;24.07;15.90;;;;;;;;;;4450852;32;20734;-53
2022/03/27 00:41:51;;;;;;;38.90;16.77;;;;;;;;;;4450517;32;20231;-53
2022/03/27 00:44:17;;;;;;;30.93;15.40;;;;;;;;;;4461977;32;20227;-53
2022/03/27 00:46:43;;;;;;;33.90;16.17;;;;;;;;;;4465981;32;20262;-53
2022/03/27 00:49:09;;;;;;;35.93;17.73;;;;;;;;;;4466166;32;20272;-53
2022/03/27 00:51:35;;;;;;;28.00;17.50;;;;;;;;;;4466055;32;20643;-52
2022/03/27 00:54:00;;;;;;;40.33;25.13;;;;;;;;;;4465325;32;20224;-52
2022/03/27 00:56:26;;;;;;;45.00;21.60;;;;;;;;;;4464416;32;20216;-52
2022/03/27 00:58:51;;;;;;;44.07;18.87;;;;;;;;;;4451698;32;20220;-53
2022/03/27 01:01:22;;;;;;;40.37;21.63;;;;;;;;;;4450378;32;20296;-52
2022/03/27 01:03:48;;;;;;;45.47;21.67;;;;;;;;;;4451504;32;20672;-52
2022/03/27 01:06:26;;;;;;;45.23;20.93;;;;;;;;;;4457011;32;20605;-53
2022/03/27 01:11:36;;;;;;;41.50;19.53;;;;;;;;;;4450065;32;20381;-53
2022/03/27 01:14:02;;;;;;;40.50;19.23;;;;;;;;;;4449068;32;20707;-52
2022/03/27 01:16:31;;;;;;;44.33;19.70;;;;;;;;;;4459921;32;20747;-52
2022/03/27 01:18:58;;;;;;;35.63;19.03;;;;;;;;;;4465831;32;20258;-52
2022/03/27 01:21:23;;;;;;;44.43;23.00;;;;;;;;;;4463218;32;20303;-53
2022/03/27 01:23:49;;;;;;;38.97;19.50;;;;;;;;;;4448763;32;20293;-53
2022/03/27 01:26:15;;;;;;;51.93;21.43;;;;;;;;;;4450340;32;20295;-52
2022/03/27 01:28:41;;;;;;;47.73;24.30;;;;;;;;;;4465603;32;20247;-52
2022/03/27 01:31:09;;;;;;;57.07;28.67;;;;;;;;;;4465532;32;20691;-51
2022/03/27 01:33:34;;;;;;;67.27;28.03;;;;;;;;;;4465459;32;20256;-52
2022/03/27 01:36:00;;;;;;;60.47;28.67;;;;;;;;;;4465363;32;20313;-52
2022/03/27 01:38:27;;;;;;;57.63;28.33;;;;;;;;;;4465458;32;20299;-52
2022/03/27 01:40:52;;;;;;;73.63;27.70;;;;;;;;;;4465680;32;20192;-52
2022/03/27 01:43:18;;;;;;;57.03;26.23;;;;;;;;;;4460198;32;20298;-52
2022/03/27 01:45:44;;;;;;;67.83;24.83;;;;;;;;;;4449948;32;20569;-53
2022/03/27 01:48:09;;;;;;;55.90;27.43;;;;;;;;;;4449558;32;20241;-52
2022/03/27 01:50:34;;;;;;;54.77;26.67;;;;;;;;;;4449462;32;20306;-52
2022/03/27 01:53:00;;;;;;;72.40;28.63;;;;;;;;;;4449491;32;20279;-51
2022/03/27 01:55:26;;;;;;;54.37;26.40;;;;;;;;;;4449146;32;20288;-52
2022/03/27 01:57:51;;;;;;;63.67;26.43;;;;;;;;;;4449578;32;20477;-52
2022/03/27 02:00:17;;;;;;;70.30;27.50;;;;;;;;;;4449300;32;20299;-53
2022/03/27 02:02:43;;;;;;;52.17;26.00;;;;;;;;;;4449364;32;20657;-52
2022/03/27 02:05:08;;;;;;;57.10;27.20;;;;;;;;;;4454373;32;20326;-52
2022/03/27 02:07:45;;;;;;;48.70;24.03;;;;;;;;;;4449255;32;20216;-51
2022/03/27 02:10:10;;;;;;;50.70;23.47;;;;;;;;;;4449364;32;20185;-52
2022/03/27 02:12:36;;;;;;;48.40;23.23;;;;;;;;;;4449293;32;20249;-53
2022/03/27 02:15:06;;;;;;;50.80;22.37;;;;;;;;;;4449260;32;20313;-52
2022/03/27 02:17:31;;;;;;;45.23;21.90;;;;;;;;;;4449280;32;20257;-52
2022/03/27 02:19:58;;;;;;;40.03;20.33;;;;;;;;;;4449243;32;20272;-53
2022/03/27 02:22:24;;;;;;;38.87;19.70;;;;;;;;;;4457602;32;20211;-52
2022/03/27 02:24:49;;;;;;;39.63;19.30;;;;;;;;;;4464498;32;20294;-53
2022/03/27 02:27:15;;;;;;;39.20;18.37;;;;;;;;;;4457232;32;20205;-52
2022/03/27 02:29:40;;;;;;;40.77;19.37;;;;;;;;;;4449345;32;20272;-53
2022/03/27 02:32:06;;;;;;;35.33;17.97;;;;;;;;;;4449097;32;20193;-53
2022/03/27 02:34:33;;;;;;;36.03;20.20;;;;;;;;;;4448823;32;20259;-53
2022/03/27 02:36:58;;;;;;;39.70;17.70;;;;;;;;;;4448749;32;20220;-52
2022/03/27 02:39:24;;;;;;;38.23;16.63;;;;;;;;;;4449126;32;20514;-52
2022/03/27 02:41:49;;;;;;;32.83;16.13;;;;;;;;;;4448677;32;20204;-52
2022/03/27 02:44:15;;;;;;;34.33;16.77;;;;;;;;;;4459457;32;20564;-52
2022/03/27 02:46:41;;;;;;;34.10;17.53;;;;;;;;;;4461795;32;20240;-52
2022/03/27 02:49:06;;;;;;;39.70;20.67;;;;;;;;;;4448595;32;20644;-52
2022/03/27 02:51:32;;;;;;;43.53;20.77;;;;;;;;;;4448645;32;20200;-52
2022/03/27 02:53:57;;;;;;;40.47;20.27;;;;;;;;;;4448772;32;20299;-53
2022/03/27 02:56:23;;;;;;;43.03;19.07;;;;;;;;;;4448006;32;20310;-53
2022/03/27 02:58:48;;;;;;;37.73;16.90;;;;;;;;;;4461887;32;20228;-54
2022/03/27 03:01:14;;;;;;;32.23;15.33;;;;;;;;;;4464406;32;20281;-53
2022/03/27 03:03:42;;;;;;;30.10;14.30;;;;;;;;;;4464103;32;20629;-52
2022/03/27 03:06:09;;;;;;;32.13;16.03;;;;;;;;;;4450955;32;20346;-52
2022/03/27 03:08:38;;;;;;;33.90;16.53;;;;;;;;;;4454738;32;20262;-52
2022/03/27 03:11:04;;;;;;;32.07;18.30;;;;;;;;;;4463748;32;20292;-53
2022/03/27 03:13:29;;;;;;;32.50;18.57;;;;;;;;;;4463922;32;20687;-52
2022/03/27 03:15:56;;;;;;;41.57;20.30;;;;;;;;;;4464251;32;20346;-54
2022/03/27 03:18:21;;;;;;;57.07;22.70;;;;;;;;;;4464221;32;20334;-53
2022/03/27 03:20:47;;;;;;;50.80;22.70;;;;;;;;;;4464003;32;20266;-53
2022/03/27 03:23:12;;;;;;;42.73;19.17;;;;;;;;;;4449933;32;20231;-53
2022/03/27 03:25:40;;;;;;;43.30;21.17;;;;;;;;;;4448696;32;20454;-51
2022/03/27 03:28:05;;;;;;;46.93;20.47;;;;;;;;;;4448143;32;20303;-53
2022/03/27 03:30:30;;;;;;;48.67;23.07;;;;;;;;;;4448060;32;20737;-52
2022/03/27 03:32:56;;;;;;;54.43;26.20;;;;;;;;;;4448116;32;20292;-52
2022/03/27 03:35:21;;;;;;;48.43;22.83;;;;;;;;;;4448099;32;20264;-51
2022/03/27 03:37:47;;;;;;;53.43;24.47;;;;;;;;;;4448333;32;20262;-52
2022/03/27 03:40:14;;;;;;;46.13;23.63;;;;;;;;;;4448415;32;20302;-52
2022/03/27 03:42:40;;;;;;;47.37;23.57;;;;;;;;;;4448232;32;20260;-51
2022/03/27 03:45:06;;;;;;;44.30;20.10;;;;;;;;;;4448353;32;20269;-54
2022/03/27 03:47:32;;;;;;;45.77;20.17;;;;;;;;;;4447920;32;20216;-52
2022/03/27 03:49:57;;;;;;;42.67;21.10;;;;;;;;;;4448341;32;20740;-52
2022/03/27 03:52:23;;;;;;;53.10;23.03;;;;;;;;;;4448384;32;20266;-52
2022/03/27 03:54:49;;;;;;;56.43;24.90;;;;;;;;;;4448136;32;20279;-51
2022/03/27 03:57:14;;;;;;;56.00;24.77;;;;;;;;;;4450474;32;20236;-52
2022/03/27 03:59:41;;;;;;;58.07;24.60;;;;;;;;;;4451411;32;20267;-54
2022/03/27 04:02:08;;;;;;;59.47;23.90;;;;;;;;;;4451460;32;20617;-52
2022/03/27 04:04:34;;;;;;;42.50;21.00;;;;;;;;;;4453334;32;20256;-53
2022/03/27 04:07:01;;;;;;;39.37;20.53;;;;;;;;;;4453512;32;20302;-52
2022/03/27 04:09:28;;;;;;;37.63;20.77;;;;;;;;;;4451203;32;20242;-52
2022/03/27 04:11:53;;;;;;;39.23;19.33;;;;;;;;;;4450912;32;20534;-52
2022/03/27 04:14:19;;;;;;;47.67;20.93;;;;;;;;;;4451457;32;20251;-52
2022/03/27 04:16:44;;;;;;;37.67;19.27;;;;;;;;;;4450806;32;20231;-51
2022/03/27 04:19:11;;;;;;;42.03;20.17;;;;;;;;;;4450810;32;20372;-54
2022/03/27 04:21:37;;;;;;;34.33;17.77;;;;;;;;;;4451102;32;20254;-52
2022/03/27 04:24:03;;;;;;;29.80;15.33;;;;;;;;;;4449782;32;20649;-51
2022/03/27 04:26:28;;;;;;;36.97;15.80;;;;;;;;;;4450609;32;20356;-52
2022/03/27 04:28:53;;;;;;;27.77;17.00;;;;;;;;;;4451265;32;20255;-52
2022/03/27 04:31:19;;;;;;;33.40;17.13;;;;;;;;;;4451097;32;20212;-53
2022/03/27 04:33:45;;;;;;;49.33;19.20;;;;;;;;;;4450911;32;20228;-53
2022/03/27 04:36:10;;;;;;;47.93;19.43;;;;;;;;;;4450609;32;20340;-52
2022/03/27 04:38:36;;;;;;;63.50;19.87;;;;;;;;;;4450743;32;20224;-52
2022/03/27 04:41:01;;;;;;;39.03;20.67;;;;;;;;;;4450234;32;20275;-53
2022/03/27 04:43:28;;;;;;;49.40;20.63;;;;;;;;;;4450276;32;20724;-53
2022/03/27 04:45:54;;;;;;;41.77;19.73;;;;;;;;;;4450324;32;20259;-52
2022/03/27 04:48:20;;;;;;;40.70;21.10;;;;;;;;;;4449787;32;20318;-53
2022/03/27 04:50:45;;;;;;;51.73;24.03;;;;;;;;;;4462979;32;20601;-54
2022/03/27 04:53:10;;;;;;;50.83;22.73;;;;;;;;;;4463493;32;20216;-53
2022/03/27 04:55:37;;;;;;;41.47;20.73;;;;;;;;;;4448134;32;20264;-52
2022/03/27 04:58:02;;;;;;;43.40;19.57;;;;;;;;;;4457471;32;20227;-51
2022/03/27 05:00:28;;;;;;;45.20;20.97;;;;;;;;;;4464853;32;20334;-52
2022/03/27 05:02:55;;;;;;;56.80;21.50;;;;;;;;;;4456870;32;20254;-54
2022/03/27 05:05:21;;;;;;;51.47;23.43;;;;;;;;;;4449315;32;20216;-53
2022/03/27 05:07:46;;;;;;;57.23;23.47;;;;;;;;;;4449236;32;20379;-53
2022/03/27 05:10:13;;;;;;;56.50;25.47;;;;;;;;;;4449032;32;20315;-53
2022/03/27 05:12:39;;;;;;;60.63;26.50;;;;;;;;;;4449286;32;20255;-53
2022/03/27 05:15:05;;;;;;;55.27;26.00;;;;;;;;;;4449649;32;20288;-53
2022/03/27 05:17:31;;;;;;;59.33;27.23;;;;;;;;;;4449404;32;20811;-53
2022/03/27 05:19:57;;;;;;;48.10;26.40;;;;;;;;;;4449510;32;20279;-53
2022/03/27 05:22:23;;;;;;;67.27;29.57;;;;;;;;;;4457329;32;20271;-53
2022/03/27 05:24:49;;;;;;;72.83;32.10;;;;;;;;;;4464714;32;20287;-53
2022/03/27 05:27:18;;;;;;;62.23;30.03;;;;;;;;;;4464730;32;20650;-51
2022/03/27 05:29:44;;;;;;;61.33;29.13;;;;;;;;;;4449396;32;20234;-52
2022/03/27 05:32:09;;;;;;;55.90;27.43;;;;;;;;;;4449399;32;20196;-54
2022/03/27 05:34:35;;;;;;;68.47;29.33;;;;;;;;;;4449087;32;20346;-52
2022/03/27 05:37:01;;;;;;;59.93;28.53;;;;;;;;;;4448817;32;20227;-51
2022/03/27 05:39:27;;;;;;;81.57;37.10;;;;;;;;;;4449073;32;20231;-52
2022/03/27 05:41:52;;;;;;;56.90;30.23;;;;;;;;;;4448972;32;20671;-52
2022/03/27 05:44:17;;;;;;;57.57;28.40;;;;;;;;;;4448681;32;20726;-52
2022/03/27 05:46:43;;;;;;;72.77;33.90;;;;;;;;;;4448591;32;20660;-52
2022/03/27 05:49:08;;;;;;;69.63;33.43;;;;;;;;;;4449286;32;20268;-53
2022/03/27 05:51:34;;;;;;;44.87;28.20;;;;;;;;;;4448338;32;20431;-52
2022/03/27 05:53:59;;;;;;;68.23;36.10;;;;;;;;;;4449772;32;20556;-53
2022/03/27 05:56:25;;;;;;;49.67;26.97;;;;;;;;;;4464136;32;20295;-53
2022/03/27 05:58:50;;;;;;;62.17;27.73;;;;;;;;;;4451121;32;20250;-53
2022/03/27 06:01:15;;;;;;;41.13;21.23;;;;;;;;;;4449458;32;20331;-52
2022/03/27 06:03:41;;;;;;;40.43;23.57;;;;;;;;;;4449360;32;20332;-52
2022/03/27 06:06:07;;;;;;;50.10;25.27;;;;;;;;;;4454085;32;20290;-52
2022/03/27 06:08:33;;;;;;;54.13;25.27;;;;;;;;;;4449539;32;20272;-52
2022/03/27 06:10:58;;;;;;;42.03;24.63;;;;;;;;;;4449183;32;20795;-52
2022/03/27 06:13:24;;;;;;;77.80;42.07;;;;;;;;;;4449311;32;20376;-53
2022/03/27 06:15:51;;;;;;;113.17;56.83;;;;;;;;;;4449646;32;20334;-52
2022/03/27 06:18:16;;;;;;;93.43;51.83;;;;;;;;;;4448414;32;20584;-52
2022/03/27 06:20:43;;;;;;;99.87;55.40;;;;;;;;;;4449151;32;20295;-54
2022/03/27 06:23:08;;;;;;;90.80;43.90;;;;;;;;;;4448996;32;20334;-53
2022/03/27 06:25:35;;;;;;;79.43;37.33;;;;;;;;;;4448194;32;20295;-53
2022/03/27 06:28:01;;;;;;;59.90;30.67;;;;;;;;;;4447300;32;20266;-52
2022/03/27 06:30:28;;;;;;;51.40;28.87;;;;;;;;;;4447272;32;20287;-53
2022/03/27 06:32:55;;;;;;;41.83;24.43;;;;;;;;;;4447298;32;20353;-52
2022/03/27 06:35:22;;;;;;;57.87;28.10;;;;;;;;;;4447077;32;20220;-53
2022/03/27 06:37:48;;;;;;;45.00;23.17;;;;;;;;;;4447122;32;20235;-52
2022/03/27 06:40:15;;;;;;;45.27;22.33;;;;;;;;;;4446822;32;20236;-53
2022/03/27 06:42:43;;;;;;;42.70;20.80;;;;;;;;;;4448744;32;20220;-53
2022/03/27 06:45:10;;;;;;;33.93;17.33;;;;;;;;;;4447401;32;20749;-53
2022/03/27 06:47:36;;;;;;;37.90;16.53;;;;;;;;;;4446826;32;20228;-53
2022/03/27 06:50:04;;;;;;;33.70;15.53;;;;;;;;;;4447117;32;20209;-52
2022/03/27 06:52:29;;;;;;;27.37;16.37;;;;;;;;;;4446893;32;20363;-54
2022/03/27 06:54:56;;;;;;;31.40;15.07;;;;;;;;;;4446063;32;20824;-51
2022/03/27 06:57:22;;;;;;;20.63;14.13;;;;;;;;;;4450585;32;20299;-53
2022/03/27 07:05:16;;;;;;;31.30;13.37;;;;;;;;;;4451379;32;20675;-52
2022/03/27 07:07:42;;;;;;;23.60;13.87;;;;;;;;;;4446536;32;20311;-52
2022/03/27 07:10:09;;;;;;;40.23;14.17;;;;;;;;;;4447113;32;20339;-52
2022/03/27 07:12:34;;;;;;;24.70;14.13;;;;;;;;;;4448484;32;20292;-52
2022/03/27 07:15:00;;;;;;;26.63;12.97;;;;;;;;;;4448787;32;20266;-54
2022/03/27 07:17:25;;;;;;;22.53;11.27;;;;;;;;;;4448172;32;20245;-51
2022/03/27 07:19:51;;;;;;;18.10;10.43;;;;;;;;;;4448708;32;20469;-53
2022/03/27 07:22:17;;;;;;;19.57;11.97;;;;;;;;;;4448039;32;20316;-52
2022/03/27 07:24:43;;;;;;;24.73;11.23;;;;;;;;;;4447019;32;20311;-54
2022/03/27 07:27:08;;;;;;;20.50;11.20;;;;;;;;;;4446930;32;20440;-52
2022/03/27 07:29:37;;;;;;;18.50;11.87;;;;;;;;;;4446841;32;20358;-54
2022/03/27 07:32:05;;;;;;;25.50;11.20;;;;;;;;;;4447473;32;20758;-52
2022/03/27 07:34:31;;;;;;;22.03;12.17;;;;;;;;;;4447641;32;20326;-54
2022/03/27 07:36:56;;;;;;;23.17;9.97;;;;;;;;;;4446590;32;20683;-52
2022/03/27 07:39:22;;;;;;;25.77;12.43;;;;;;;;;;4448269;32;20310;-53
2022/03/27 07:41:48;;;;;;;27.03;12.13;;;;;;;;;;4448191;32;20392;-52
2022/03/27 07:44:13;;;;;;;23.67;10.67;;;;;;;;;;4448369;32;20235;-52
2022/03/27 07:46:39;;;;;;;20.23;10.87;;;;;;;;;;4448135;32;20196;-52
2022/03/27 07:49:06;;;;;;;28.00;9.70;;;;;;;;;;4448397;32;20591;-53
2022/03/27 07:51:33;;;;;;;16.60;9.07;;;;;;;;;;4448159;32;20221;-52
2022/03/27 07:53:58;;;;;;;17.10;9.47;;;;;;;;;;4448497;32;20351;-52
2022/03/27 07:56:25;;;;;;;15.03;9.20;;;;;;;;;;4463809;32;20220;-52
2022/03/27 07:58:50;;;;;;;12.80;8.53;;;;;;;;;;4449733;32;20356;-54
2022/03/27 08:01:16;;;;;;;16.67;9.87;;;;;;;;;;4448320;32;20327;-54
2022/03/27 08:03:41;;;;;;;17.93;9.90;;;;;;;;;;4448090;32;20310;-53
2022/03/27 08:06:07;;;;;;;18.60;8.67;;;;;;;;;;4452950;32;20361;-52
2022/03/27 08:08:33;;;;;;;21.33;10.67;;;;;;;;;;4448383;32;20570;-53
2022/03/27 08:10:59;;;;;;;17.47;10.00;;;;;;;;;;4447787;32;20327;-53
2022/03/27 08:13:24;;;;;;;25.60;10.10;;;;;;;;;;4448214;32;20283;-53
2022/03/27 08:15:50;;;;;;;19.60;11.30;;;;;;;;;;4448256;32;20295;-53
2022/03/27 08:18:15;;;;;;;40.47;11.77;;;;;;;;;;4448003;32;20668;-52
2022/03/27 08:20:41;;;;;;;17.50;10.27;;;;;;;;;;4447925;32;20316;-54
2022/03/27 08:23:07;;;;;;;17.80;10.13;;;;;;;;;;4447589;32;20220;-53
2022/03/27 08:28:21;;;;;;;17.73;10.47;;;;;;;;;;4445600;32;20289;-53
2022/03/27 08:30:47;;;;;;;20.93;10.20;;;;;;;;;;4445184;32;20243;-54
2022/03/27 08:33:14;;;;;;;21.97;10.37;;;;;;;;;;4457916;32;20287;-54
2022/03/27 08:35:41;;;;;;;28.43;12.63;;;;;;;;;;4445048;32;20240;-54
2022/03/27 08:38:17;;;;;;;28.57;13.53;;;;;;;;;;4447622;32;20266;-53
2022/03/27 08:40:44;;;;;;;41.60;18.70;;;;;;;;;;4446933;32;20325;-55
2022/03/27 08:43:15;;;;;;;45.23;16.77;;;;;;;;;;4448927;32;20401;-53
2022/03/27 08:45:42;;;;;;;22.03;12.20;;;;;;;;;;4447686;32;20399;-54
2022/03/27 08:48:08;;;;;;;21.27;11.27;;;;;;;;;;4450061;32;20323;-53
2022/03/27 08:50:34;;;;;;;28.67;10.10;;;;;;;;;;4453071;32;20282;-55
2022/03/27 08:53:02;;;;;;;16.07;8.97;;;;;;;;;;4465962;32;20235;-54
2022/03/27 08:55:57;;;;;;;21.13;11.57;;;;;;;;;;4454921;32;20299;-55
2022/03/27 08:58:31;;;;;;;30.67;13.83;;;;;;;;;;4450568;32;20664;-54
2022/03/27 09:00:57;;;;;;;26.20;11.90;;;;;;;;;;4449193;32;20224;-53
2022/03/27 09:03:23;;;;;;;26.63;10.97;;;;;;;;;;4449268;32;20730;-53
2022/03/27 09:05:49;;;;;;;17.50;10.47;;;;;;;;;;4450357;32;20359;-53
2022/03/27 09:08:15;;;;;;;17.70;9.43;;;;;;;;;;4449082;32;20593;-55
2022/03/27 09:10:41;;;;;;;30.03;11.47;;;;;;;;;;4449239;32;20268;-54
2022/03/27 09:13:11;;;;;;;16.60;9.73;;;;;;;;;;4450114;32;20228;-54
2022/03/27 09:15:36;;;;;;;16.97;10.47;;;;;;;;;;4450444;32;20201;-55
2022/03/27 09:18:10;;;;;;;20.40;12.20;;;;;;;;;;4436306;32;20228;-53
2022/03/27 09:20:37;;;;;;;26.60;12.00;;;;;;;;;;4450155;32;20247;-54
2022/03/27 09:23:15;;;;;;;19.27;10.20;;;;;;;;;;4450024;32;20228;-55
2022/03/27 09:25:47;;;;;;;25.15;10.27;;;;;;;;;;4449985;32;20263;-54
2022/03/27 09:28:32;;;;;;;23.30;8.97;;;;;;;;;;4449989;32;20232;-54
2022/03/27 09:31:00;;;;;;;21.77;10.43;;;;;;;;;;4449947;32;20296;-54
2022/03/27 09:33:46;;;;;;;12.93;8.63;;;;;;;;;;4450029;32;20419;-54
2022/03/27 09:36:24;;;;;;;17.03;8.03;;;;;;;;;;4450200;32;20660;-54
2022/03/27 09:39:11;;;;;;;16.83;7.27;;;;;;;;;;4449806;32;20668;-55
2022/03/27 09:41:39;;;;;;;16.90;8.47;;;;;;;;;;4448801;32;20272;-55
2022/03/27 09:44:13;;;;;;;21.87;8.30;;;;;;;;;;4448916;32;20258;-53
2022/03/27 09:46:57;;;;;;;13.73;8.43;;;;;;;;;;4449764;32;20366;-53
2022/03/27 09:49:43;;;;;;;15.30;7.47;;;;;;;;;;4450041;32;20268;-54
2022/03/27 09:52:12;;;;;;;23.10;9.02;;;;;;;;;;4449633;32;20299;-54
2022/03/27 09:55:05;;;;;;;18.05;8.40;;;;;;;;;;4448320;32;20215;-57
2022/03/27 09:57:41;;;;;;;21.05;10.02;;;;;;;;;;4453116;32;20255;-54
2022/03/27 10:00:18;;;;;;;14.43;9.30;;;;;;;;;;4465273;32;20212;-54
2022/03/27 10:02:45;;;;;;;14.75;8.85;;;;;;;;;;4464904;32;20250;-54
2022/03/27 10:05:11;;;;;;;20.45;10.18;;;;;;;;;;4457194;32;20240;-54
2022/03/27 10:07:40;;;;;;;18.50;8.07;;;;;;;;;;4449307;32;20233;-53
2022/03/27 10:10:07;;;;;;;21.87;9.48;;;;;;;;;;4449208;32;20209;-53
2022/03/27 10:12:35;;;;;;;26.02;10.40;;;;;;;;;;4448254;32;20235;-53
2022/03/27 10:15:06;;;;;;;18.87;10.20;;;;;;;;;;4446889;32;20555;-54
2022/03/27 10:17:34;;;;;;;20.42;10.10;;;;;;;;;;4447827;32;20286;-54
2022/03/27 10:20:08;;;;;;;20.45;8.95;;;;;;;;;;4447567;32;20212;-53
2022/03/27 10:22:37;;;;;;;16.92;8.25;;;;;;;;;;4446979;32;20597;-54
2022/03/27 10:25:04;;;;;;;25.27;10.88;;;;;;;;;;4448835;32;20263;-53
2022/03/27 10:27:31;;;;;;;24.48;10.85;;;;;;;;;;4449173;32;20393;-53
2022/03/27 10:29:59;;;;;;;22.85;10.52;;;;;;;;;;4449546;32;20277;-54
2022/03/27 10:32:25;;;;;;;23.15;12.68;;;;;;;;;;4448880;32;20208;-53
2022/03/27 10:34:57;;;;;;;18.23;10.30;;;;;;;;;;4448903;32;20271;-54
2022/03/27 10:37:33;;;;;;;28.38;13.05;;;;;;;;;;4448728;32;20620;-53
2022/03/27 10:40:09;;;;;;;19.12;10.35;;;;;;;;;;4448029;32;20345;-53
2022/03/27 10:42:40;;;;;;;27.02;12.63;;;;;;;;;;4447907;32;20284;-53
2022/03/27 10:45:24;;;;;;;17.02;9.02;;;;;;;;;;4448891;32;20196;-54
2022/03/27 10:48:10;;;;;;;20.45;10.45;;;;;;;;;;4448691;32;20321;-53
2022/03/27 10:50:55;;;;;;;23.62;10.52;;;;;;;;;;4449226;32;20271;-53
2022/03/27 10:53:25;;;;;;;23.90;11.68;;;;;;;;;;4449169;32;20238;-54
2022/03/27 10:55:52;;;;;;;22.87;10.15;;;;;;;;;;4448532;32;20654;-54
2022/03/27 10:58:31;;;;;;;27.20;11.45;;;;;;;;;;4454057;32;20361;-53
2022/03/27 11:00:59;;;;;;;22.73;11.12;;;;;;;;;;4448323;32;20184;-53
2022/03/27 11:03:43;;;;;;;29.25;11.05;;;;;;;;;;4448288;32;20480;-53
2022/03/27 11:06:31;;;;;;;24.92;10.95;;;;;;;;;;4452728;32;20365;-53
2022/03/27 11:09:02;;;;;;;20.67;10.52;;;;;;;;;;4448605;32;20242;-54
2022/03/27 11:11:34;;;;;;;14.32;9.48;;;;;;;;;;4448392;32;20486;-53
2022/03/27 11:14:00;;;;;;;20.52;9.18;;;;;;;;;;4448101;32;20260;-53
2022/03/27 11:16:26;;;;;;;26.80;10.65;;;;;;;;;;4448499;32;20232;-52
2022/03/27 11:18:51;;;;;;;22.00;10.38;;;;;;;;;;4448857;32;20255;-53
2022/03/27 11:21:26;;;;;;;20.12;10.07;;;;;;;;;;4456123;32;20288;-53
2022/03/27 11:23:53;;;;;;;22.00;10.10;;;;;;;;;;4463857;32;20236;-53
2022/03/27 11:26:21;;;;;;;20.88;10.10;;;;;;;;;;4463127;32;20259;-54
2022/03/27 11:28:49;;;;;;;23.60;10.38;;;;;;;;;;4462992;32;20657;-53
2022/03/27 11:31:17;;;;;;;20.65;9.77;;;;;;;;;;4462923;32;20242;-53
2022/03/27 11:33:45;;;;;;;19.98;10.23;;;;;;;;;;4462890;32;20236;-53
2022/03/27 11:36:14;;;;;;;18.37;9.15;;;;;;;;;;4462393;32;20212;-53
2022/03/27 11:38:52;;;;;;;24.83;11.30;;;;;;;;;;4463640;32;20307;-53
2022/03/27 11:41:45;;;;;;;26.65;9.25;;;;;;;;;;4448159;32;20212;-53
2022/03/27 11:44:17;;;;;;;15.40;9.52;;;;;;;;;;4447910;32;20699;-53
2022/03/27 11:46:49;;;;;;;21.00;10.18;;;;;;;;;;4447537;32;20216;-53
2022/03/27 11:49:17;;;;;;;21.23;10.70;;;;;;;;;;4447953;32;20229;-52
2022/03/27 11:51:42;;;;;;;19.15;10.35;;;;;;;;;;4447757;32;20632;-53
2022/03/27 11:54:22;;;;;;;19.83;9.98;;;;;;;;;;4446203;32;20354;-53
2022/03/27 11:56:56;;;;;;;22.55;10.65;;;;;;;;;;4460744;32;20620;-53
2022/03/27 11:59:25;;;;;;;19.58;10.23;;;;;;;;;;4447660;32;20263;-54
2022/03/27 12:01:57;;;;;;;20.45;10.30;;;;;;;;;;4448851;32;20224;-53
2022/03/27 12:04:27;;;;;;;15.65;9.18;;;;;;;;;;4460308;32;20253;-52
2022/03/27 12:06:56;;;;;;;21.67;9.55;;;;;;;;;;4445670;32;20693;-54
2022/03/27 12:09:24;;;;;;;19.52;9.93;;;;;;;;;;4445696;32;20213;-53
2022/03/27 12:12:13;;;;;;;27.67;10.70;;;;;;;;;;4445783;32;20213;-53
2022/03/27 12:14:58;;;;;;;15.73;9.50;;;;;;;;;;4445574;32;20549;-52
2022/03/27 12:17:31;;;;;;;18.37;10.32;;;;;;;;;;4447305;32;20254;-53
2022/03/27 12:20:05;;;;;;;19.27;10.18;;;;;;;;;;4451038;32;20205;-53
2022/03/27 12:22:46;;;;;;;13.57;8.30;;;;;;;;;;4450684;32;20216;-53
2022/03/27 12:25:25;;;;;;;28.58;9.75;;;;;;;;;;4451153;32;20586;-54
2022/03/27 12:30:47;;;;;;;26.27;10.50;;;;;;;;;;4450683;32;20332;-54
2022/03/27 12:33:13;;;;;;;14.55;10.32;;;;;;;;;;4450502;32;20307;-53
2022/03/27 12:35:39;;;;;;;21.80;10.60;;;;;;;;;;4450563;32;20723;-55
2022/03/27 12:38:05;;;;;;;19.73;9.77;;;;;;;;;;4450468;32;20227;-54
2022/03/27 12:40:42;;;;;;;17.85;10.80;;;;;;;;;;4450517;32;20612;-53
2022/03/27 12:43:15;;;;;;;20.90;10.90;;;;;;;;;;4450527;32;20224;-54
2022/03/27 12:45:41;;;;;;;26.42;9.35;;;;;;;;;;4450225;32;20188;-53
2022/03/27 12:48:18;;;;;;;25.45;8.68;;;;;;;;;;4449599;32;20718;-53
2022/03/27 12:50:52;;;;;;;18.45;9.23;;;;;;;;;;4448704;32;20212;-54
2022/03/27 12:53:20;;;;;;;14.87;8.93;;;;;;;;;;4448731;32;20258;-54
2022/03/27 12:56:01;;;;;;;25.20;10.35;;;;;;;;;;4448759;32;20250;-53
2022/03/27 12:58:35;;;;;;;16.73;8.85;;;;;;;;;;4460744;32;20231;-54
2022/03/27 13:01:20;;;;;;;19.83;10.90;;;;;;;;;;4464087;32;20573;-53
2022/03/27 13:04:00;;;;;;;15.10;9.23;;;;;;;;;;4449150;32;20479;-55
2022/03/27 13:06:38;;;;;;;11.98;7.93;;;;;;;;;;4452475;32;20278;-54
2022/03/27 13:09:07;;;;;;;15.70;9.75;;;;;;;;;;4448582;32;20216;-54
2022/03/27 13:11:44;;;;;;;21.23;9.10;;;;;;;;;;4450143;32;20204;-54
2022/03/27 13:14:11;;;;;;;24.67;9.10;;;;;;;;;;4450434;32;20291;-55
2022/03/27 13:16:46;;;;;;;18.77;9.00;;;;;;;;;;4450156;32;20205;-55
2022/03/27 13:19:13;;;;;;;15.13;10.07;;;;;;;;;;4450042;32;20542;-54
2022/03/27 13:21:55;;;;;;;19.80;10.50;;;;;;;;;;4460158;32;20208;-53
2022/03/27 13:24:26;;;;;;;13.32;9.52;;;;;;;;;;4466015;32;20748;-55
2022/03/27 13:26:56;;;;;;;22.50;10.45;;;;;;;;;;4465775;32;20316;-53
2022/03/27 13:29:22;;;;;;;16.40;9.80;;;;;;;;;;4465774;32;20238;-54
2022/03/27 13:31:50;;;;;;;23.58;10.27;;;;;;;;;;4463099;32;20220;-54
2022/03/27 13:34:16;;;;;;;34.83;12.55;;;;;;;;;;4449907;32;20257;-54
2022/03/27 13:36:44;;;;;;;17.60;9.05;;;;;;;;;;4449809;32;20275;-54
2022/03/27 13:39:11;;;;;;;16.37;8.43;;;;;;;;;;4449297;32;20797;-55
2022/03/27 13:44:41;;;;;;;15.85;9.02;;;;;;;;;;4399117;32;20216;-54
2022/03/27 13:47:08;;;;;;;16.62;7.37;;;;;;;;;;4437412;32;20225;-54
2022/03/27 13:49:34;;;;;;;12.95;7.53;;;;;;;;;;4449554;32;20220;-53
2022/03/27 13:52:00;;;;;;;13.10;7.12;;;;;;;;;;4449272;32;20200;-55
2022/03/27 13:54:25;;;;;;;17.48;8.82;;;;;;;;;;4449722;32;20278;-53
2022/03/27 13:56:51;;;;;;;20.67;7.37;;;;;;;;;;4450401;32;20796;-53
2022/03/27 13:59:18;;;;;;;22.80;7.43;;;;;;;;;;4465434;32;20215;-54
2022/03/27 14:01:44;;;;;;;17.40;7.35;;;;;;;;;;4462648;32;20301;-54
2022/03/27 14:04:12;;;;;;;14.02;7.50;;;;;;;;;;4449544;32;20283;-55
2022/03/27 14:06:38;;;;;;;13.48;7.07;;;;;;;;;;4453389;32;20212;-54
2022/03/27 14:09:05;;;;;;;11.68;7.72;;;;;;;;;;4448786;32;20282;-56
2022/03/27 14:11:31;;;;;;;13.80;8.18;;;;;;;;;;4449115;32;20227;-54
2022/03/27 14:13:57;;;;;;;11.38;8.73;;;;;;;;;;4448278;32;20608;-54
2022/03/27 14:16:23;;;;;;;12.02;7.05;;;;;;;;;;4447052;32;20259;-55
2022/03/27 14:18:50;;;;;;;16.08;9.73;;;;;;;;;;4447125;32;20303;-56
2022/03/27 14:21:15;;;;;;;14.23;8.02;;;;;;;;;;4454683;32;20299;-54
2022/03/27 14:23:41;;;;;;;16.23;8.40;;;;;;;;;;4462977;32;20254;-54
2022/03/27 14:26:06;;;;;;;19.42;8.70;;;;;;;;;;4463851;32;20343;-55
2022/03/27 14:28:34;;;;;;;15.70;8.27;;;;;;;;;;4459171;32;20696;-55
2022/03/27 14:30:59;;;;;;;15.18;7.68;;;;;;;;;;4449137;32;20518;-54
2022/03/27 14:33:26;;;;;;;16.70;7.65;;;;;;;;;;4449022;32;20335;-54
2022/03/27 14:35:54;;;;;;;11.05;7.53;;;;;;;;;;4448837;32;20660;-54
2022/03/27 14:38:21;;;;;;;11.95;7.07;;;;;;;;;;4448904;32;20331;-52
2022/03/27 14:40:47;;;;;;;20.17;9.27;;;;;;;;;;4448911;32;20209;-53
2022/03/27 14:43:14;;;;;;;15.77;9.43;;;;;;;;;;4448644;32;20224;-54